sensor_id;sensor_type;location;lat;lon;timestamp;P1;durP1;ratioP1;P2;durP2;ratioP2
4885;SDS011;2457;51.788;6.136;2022-11-20T00:01:29;11.47;;;7.43;;
4885;SDS011;2457;51.788;6.136;2022-11-20T00:03:57;14.80;;;8.90;;
4885;SDS011;2457;51.788;6.136;2022-11-20T00:06:25;11.93;;;7.13;;
4885;SDS011;2457;51.788;6.136;2022-11-20T00:08:56;15.70;;;6.93;;
4885;SDS011;2457;51.788;6.136;2022-11-20T00:11:25;11.47;;;6.90;;
4885;SDS011;2457;51.788;6.136;2022-11-20T00:13:54;11.90;;;6.60;;
4885;SDS011;2457;51.788;6.136;2022-11-20T00:16:23;9.97;;;6.63;;
4885;SDS011;2457;51.788;6.136;2022-11-20T00:18:51;10.47;;;6.97;;
4885;SDS011;2457;51.788;6.136;2022-11-20T00:21:20;13.50;;;7.47;;
4885;SDS011;2457;51.788;6.136;2022-11-20T00:23:48;11.23;;;6.80;;
4885;SDS011;2457;51.788;6.136;2022-11-20T00:26:16;12.50;;;7.43;;
4885;SDS011;2457;51.788;6.136;2022-11-20T00:28:49;13.33;;;7.10;;
4885;SDS011;2457;51.788;6.136;2022-11-20T00:31:13;11.50;;;7.00;;
4885;SDS011;2457;51.788;6.136;2022-11-20T00:33:40;16.20;;;7.50;;
4885;SDS011;2457;51.788;6.136;2022-11-20T00:36:09;13.00;;;7.63;;
4885;SDS011;2457;51.788;6.136;2022-11-20T00:38:37;11.60;;;7.27;;
4885;SDS011;2457;51.788;6.136;2022-11-20T00:41:06;12.53;;;7.20;;
4885;SDS011;2457;51.788;6.136;2022-11-20T00:43:33;10.50;;;6.43;;
4885;SDS011;2457;51.788;6.136;2022-11-20T00:46:01;12.27;;;7.77;;
4885;SDS011;2457;51.788;6.136;2022-11-20T00:48:29;12.00;;;7.37;;
4885;SDS011;2457;51.788;6.136;2022-11-20T00:50:57;12.40;;;7.50;;
4885;SDS011;2457;51.788;6.136;2022-11-20T00:53:24;12.40;;;7.17;;
4885;SDS011;2457;51.788;6.136;2022-11-20T00:55:55;12.97;;;6.83;;
4885;SDS011;2457;51.788;6.136;2022-11-20T00:58:23;14.00;;;7.83;;
4885;SDS011;2457;51.788;6.136;2022-11-20T01:00:50;12.00;;;7.20;;
4885;SDS011;2457;51.788;6.136;2022-11-20T01:03:17;12.60;;;7.47;;
4885;SDS011;2457;51.788;6.136;2022-11-20T01:05:45;13.17;;;7.60;;
4885;SDS011;2457;51.788;6.136;2022-11-20T01:08:12;11.60;;;6.90;;
4885;SDS011;2457;51.788;6.136;2022-11-20T01:10:39;12.50;;;6.90;;
4885;SDS011;2457;51.788;6.136;2022-11-20T01:13:06;11.90;;;6.47;;
4885;SDS011;2457;51.788;6.136;2022-11-20T01:15:52;10.00;;;7.20;;
4885;SDS011;2457;51.788;6.136;2022-11-20T01:18:19;12.37;;;7.43;;
4885;SDS011;2457;51.788;6.136;2022-11-20T01:20:46;18.10;;;7.33;;
4885;SDS011;2457;51.788;6.136;2022-11-20T01:23:14;16.63;;;7.60;;
4885;SDS011;2457;51.788;6.136;2022-11-20T01:25:41;11.17;;;6.87;;
4885;SDS011;2457;51.788;6.136;2022-11-20T01:28:08;10.23;;;6.60;;
4885;SDS011;2457;51.788;6.136;2022-11-20T01:30:35;14.07;;;7.40;;
4885;SDS011;2457;51.788;6.136;2022-11-20T01:33:03;11.90;;;7.57;;
4885;SDS011;2457;51.788;6.136;2022-11-20T01:35:30;10.80;;;6.90;;
4885;SDS011;2457;51.788;6.136;2022-11-20T01:37:57;12.37;;;7.50;;
4885;SDS011;2457;51.788;6.136;2022-11-20T01:40:24;12.33;;;6.80;;
4885;SDS011;2457;51.788;6.136;2022-11-20T01:42:53;12.40;;;7.27;;
4885;SDS011;2457;51.788;6.136;2022-11-20T01:48:25;11.90;;;7.43;;
4885;SDS011;2457;51.788;6.136;2022-11-20T01:50:53;12.87;;;7.33;;
4885;SDS011;2457;51.788;6.136;2022-11-20T01:53:21;11.93;;;7.13;;
4885;SDS011;2457;51.788;6.136;2022-11-20T01:55:50;13.00;;;7.60;;
4885;SDS011;2457;51.788;6.136;2022-11-20T01:58:18;11.20;;;7.23;;
4885;SDS011;2457;51.788;6.136;2022-11-20T02:00:46;14.00;;;6.97;;
4885;SDS011;2457;51.788;6.136;2022-11-20T02:03:15;14.97;;;8.20;;
4885;SDS011;2457;51.788;6.136;2022-11-20T02:08:14;12.43;;;7.00;;
4885;SDS011;2457;51.788;6.136;2022-11-20T02:10:42;11.87;;;6.27;;
4885;SDS011;2457;51.788;6.136;2022-11-20T02:13:09;13.17;;;7.60;;
4885;SDS011;2457;51.788;6.136;2022-11-20T02:15:55;12.20;;;7.20;;
4885;SDS011;2457;51.788;6.136;2022-11-20T02:18:22;10.80;;;7.13;;
4885;SDS011;2457;51.788;6.136;2022-11-20T02:20:53;11.00;;;7.00;;
4885;SDS011;2457;51.788;6.136;2022-11-20T02:25:48;17.13;;;10.00;;
4885;SDS011;2457;51.788;6.136;2022-11-20T02:28:16;13.43;;;7.80;;
4885;SDS011;2457;51.788;6.136;2022-11-20T02:30:44;12.67;;;7.37;;
4885;SDS011;2457;51.788;6.136;2022-11-20T02:33:12;12.07;;;7.20;;
4885;SDS011;2457;51.788;6.136;2022-11-20T02:35:40;11.00;;;6.77;;
4885;SDS011;2457;51.788;6.136;2022-11-20T02:38:08;13.30;;;7.73;;
4885;SDS011;2457;51.788;6.136;2022-11-20T02:40:35;11.63;;;7.40;;
4885;SDS011;2457;51.788;6.136;2022-11-20T02:43:02;13.63;;;8.10;;
4885;SDS011;2457;51.788;6.136;2022-11-20T02:45:30;11.67;;;6.73;;
4885;SDS011;2457;51.788;6.136;2022-11-20T02:47:57;10.70;;;7.10;;
4885;SDS011;2457;51.788;6.136;2022-11-20T02:50:25;11.40;;;7.27;;
4885;SDS011;2457;51.788;6.136;2022-11-20T02:52:52;12.30;;;7.00;;
4885;SDS011;2457;51.788;6.136;2022-11-20T02:55:19;14.80;;;7.60;;
4885;SDS011;2457;51.788;6.136;2022-11-20T02:57:46;8.77;;;5.93;;
4885;SDS011;2457;51.788;6.136;2022-11-20T03:00:14;14.17;;;8.10;;
4885;SDS011;2457;51.788;6.136;2022-11-20T03:02:41;13.60;;;7.00;;
4885;SDS011;2457;51.788;6.136;2022-11-20T03:05:08;12.63;;;7.40;;
4885;SDS011;2457;51.788;6.136;2022-11-20T03:07:36;12.50;;;7.00;;
4885;SDS011;2457;51.788;6.136;2022-11-20T03:10:03;11.80;;;6.80;;
4885;SDS011;2457;51.788;6.136;2022-11-20T03:12:31;10.23;;;6.70;;
4885;SDS011;2457;51.788;6.136;2022-11-20T03:14:58;14.00;;;7.50;;
4885;SDS011;2457;51.788;6.136;2022-11-20T03:17:25;12.43;;;7.33;;
4885;SDS011;2457;51.788;6.136;2022-11-20T03:19:52;12.47;;;7.03;;
4885;SDS011;2457;51.788;6.136;2022-11-20T03:22:20;13.10;;;7.17;;
4885;SDS011;2457;51.788;6.136;2022-11-20T03:24:47;15.07;;;6.87;;
4885;SDS011;2457;51.788;6.136;2022-11-20T03:27:14;11.80;;;7.20;;
4885;SDS011;2457;51.788;6.136;2022-11-20T03:29:41;11.47;;;7.23;;
4885;SDS011;2457;51.788;6.136;2022-11-20T03:32:09;12.00;;;7.13;;
4885;SDS011;2457;51.788;6.136;2022-11-20T03:34:36;11.00;;;6.87;;
4885;SDS011;2457;51.788;6.136;2022-11-20T03:37:03;12.33;;;8.03;;
4885;SDS011;2457;51.788;6.136;2022-11-20T03:39:30;9.40;;;6.90;;
4885;SDS011;2457;51.788;6.136;2022-11-20T03:41:58;11.13;;;6.73;;
4885;SDS011;2457;51.788;6.136;2022-11-20T03:44:25;12.90;;;7.07;;
4885;SDS011;2457;51.788;6.136;2022-11-20T03:46:52;11.77;;;6.73;;
4885;SDS011;2457;51.788;6.136;2022-11-20T03:49:19;12.03;;;7.03;;
4885;SDS011;2457;51.788;6.136;2022-11-20T03:51:47;12.53;;;7.40;;
4885;SDS011;2457;51.788;6.136;2022-11-20T03:54:14;10.07;;;6.73;;
4885;SDS011;2457;51.788;6.136;2022-11-20T03:56:41;12.10;;;6.93;;
4885;SDS011;2457;51.788;6.136;2022-11-20T03:59:09;14.47;;;7.67;;
4885;SDS011;2457;51.788;6.136;2022-11-20T04:01:37;11.63;;;7.00;;
4885;SDS011;2457;51.788;6.136;2022-11-20T04:04:04;13.53;;;7.13;;
4885;SDS011;2457;51.788;6.136;2022-11-20T04:06:35;11.77;;;8.00;;
4885;SDS011;2457;51.788;6.136;2022-11-20T04:09:03;13.07;;;7.43;;
4885;SDS011;2457;51.788;6.136;2022-11-20T04:11:32;13.43;;;8.20;;
4885;SDS011;2457;51.788;6.136;2022-11-20T04:14:01;13.33;;;8.20;;
4885;SDS011;2457;51.788;6.136;2022-11-20T04:16:29;11.30;;;7.63;;
4885;SDS011;2457;51.788;6.136;2022-11-20T04:19:00;11.63;;;7.20;;
4885;SDS011;2457;51.788;6.136;2022-11-20T04:21:27;12.33;;;7.03;;
4885;SDS011;2457;51.788;6.136;2022-11-20T04:23:55;13.33;;;7.40;;
4885;SDS011;2457;51.788;6.136;2022-11-20T04:26:23;11.67;;;6.80;;
4885;SDS011;2457;51.788;6.136;2022-11-20T04:28:51;10.03;;;7.07;;
4885;SDS011;2457;51.788;6.136;2022-11-20T04:31:28;12.90;;;7.40;;
4885;SDS011;2457;51.788;6.136;2022-11-20T04:33:58;13.80;;;7.53;;
4885;SDS011;2457;51.788;6.136;2022-11-20T04:36:25;11.97;;;7.50;;
4885;SDS011;2457;51.788;6.136;2022-11-20T04:38:56;13.60;;;8.30;;
4885;SDS011;2457;51.788;6.136;2022-11-20T04:41:24;10.53;;;6.57;;
4885;SDS011;2457;51.788;6.136;2022-11-20T04:43:53;12.90;;;7.60;;
4885;SDS011;2457;51.788;6.136;2022-11-20T04:46:22;11.50;;;6.93;;
4885;SDS011;2457;51.788;6.136;2022-11-20T04:48:49;11.63;;;7.13;;
4885;SDS011;2457;51.788;6.136;2022-11-20T04:51:17;10.10;;;6.60;;
4885;SDS011;2457;51.788;6.136;2022-11-20T04:53:44;13.20;;;7.00;;
4885;SDS011;2457;51.788;6.136;2022-11-20T04:56:12;13.23;;;6.50;;
4885;SDS011;2457;51.788;6.136;2022-11-20T04:58:39;12.03;;;7.50;;
4885;SDS011;2457;51.788;6.136;2022-11-20T05:01:11;11.53;;;7.60;;
4885;SDS011;2457;51.788;6.136;2022-11-20T05:03:39;9.50;;;6.50;;
4885;SDS011;2457;51.788;6.136;2022-11-20T05:06:06;13.57;;;8.00;;
4885;SDS011;2457;51.788;6.136;2022-11-20T05:08:34;11.67;;;7.20;;
4885;SDS011;2457;51.788;6.136;2022-11-20T05:11:06;9.13;;;6.40;;
4885;SDS011;2457;51.788;6.136;2022-11-20T05:13:30;11.90;;;7.53;;
4885;SDS011;2457;51.788;6.136;2022-11-20T05:16:08;11.73;;;7.23;;
4885;SDS011;2457;51.788;6.136;2022-11-20T05:18:33;11.20;;;7.23;;
4885;SDS011;2457;51.788;6.136;2022-11-20T05:21:00;14.50;;;6.80;;
4885;SDS011;2457;51.788;6.136;2022-11-20T05:23:28;11.27;;;7.20;;
4885;SDS011;2457;51.788;6.136;2022-11-20T05:25:56;9.77;;;6.57;;
4885;SDS011;2457;51.788;6.136;2022-11-20T05:28:24;12.40;;;7.50;;
4885;SDS011;2457;51.788;6.136;2022-11-20T05:30:51;13.10;;;7.30;;
4885;SDS011;2457;51.788;6.136;2022-11-20T05:33:19;10.80;;;7.27;;
4885;SDS011;2457;51.788;6.136;2022-11-20T05:35:46;11.10;;;6.80;;
4885;SDS011;2457;51.788;6.136;2022-11-20T05:38:14;10.63;;;7.27;;
4885;SDS011;2457;51.788;6.136;2022-11-20T05:40:42;14.37;;;8.10;;
4885;SDS011;2457;51.788;6.136;2022-11-20T05:43:09;13.43;;;7.10;;
4885;SDS011;2457;51.788;6.136;2022-11-20T05:45:36;11.30;;;7.13;;
4885;SDS011;2457;51.788;6.136;2022-11-20T05:48:03;17.53;;;9.20;;
4885;SDS011;2457;51.788;6.136;2022-11-20T05:50:31;21.03;;;11.73;;
4885;SDS011;2457;51.788;6.136;2022-11-20T05:52:58;34.27;;;16.40;;
4885;SDS011;2457;51.788;6.136;2022-11-20T05:55:26;24.63;;;12.20;;
4885;SDS011;2457;51.788;6.136;2022-11-20T05:57:54;18.40;;;10.90;;
4885;SDS011;2457;51.788;6.136;2022-11-20T06:00:21;25.73;;;10.03;;
4885;SDS011;2457;51.788;6.136;2022-11-20T06:02:48;15.40;;;8.83;;
4885;SDS011;2457;51.788;6.136;2022-11-20T06:05:16;13.07;;;7.83;;
4885;SDS011;2457;51.788;6.136;2022-11-20T06:07:43;15.13;;;8.20;;
4885;SDS011;2457;51.788;6.136;2022-11-20T06:10:10;17.83;;;9.53;;
4885;SDS011;2457;51.788;6.136;2022-11-20T06:12:37;14.20;;;8.50;;
4885;SDS011;2457;51.788;6.136;2022-11-20T06:15:05;14.60;;;7.00;;
4885;SDS011;2457;51.788;6.136;2022-11-20T06:17:32;14.37;;;8.73;;
4885;SDS011;2457;51.788;6.136;2022-11-20T06:20:00;14.40;;;8.37;;
4885;SDS011;2457;51.788;6.136;2022-11-20T06:22:27;11.30;;;7.87;;
4885;SDS011;2457;51.788;6.136;2022-11-20T06:24:54;15.63;;;8.80;;
4885;SDS011;2457;51.788;6.136;2022-11-20T06:27:22;13.50;;;8.47;;
4885;SDS011;2457;51.788;6.136;2022-11-20T06:29:49;11.80;;;7.47;;
4885;SDS011;2457;51.788;6.136;2022-11-20T06:32:16;13.10;;;8.23;;
4885;SDS011;2457;51.788;6.136;2022-11-20T06:34:43;18.30;;;8.47;;
4885;SDS011;2457;51.788;6.136;2022-11-20T06:37:11;14.10;;;7.90;;
4885;SDS011;2457;51.788;6.136;2022-11-20T06:39:38;12.63;;;8.70;;
4885;SDS011;2457;51.788;6.136;2022-11-20T06:42:05;12.23;;;8.07;;
4885;SDS011;2457;51.788;6.136;2022-11-20T06:44:32;14.87;;;8.60;;
4885;SDS011;2457;51.788;6.136;2022-11-20T06:47:00;17.23;;;8.80;;
4885;SDS011;2457;51.788;6.136;2022-11-20T06:49:27;12.50;;;8.47;;
4885;SDS011;2457;51.788;6.136;2022-11-20T06:51:54;12.83;;;7.80;;
4885;SDS011;2457;51.788;6.136;2022-11-20T06:54:21;11.80;;;7.90;;
4885;SDS011;2457;51.788;6.136;2022-11-20T06:56:49;12.27;;;7.50;;
4885;SDS011;2457;51.788;6.136;2022-11-20T06:59:16;12.40;;;8.00;;
4885;SDS011;2457;51.788;6.136;2022-11-20T07:01:43;12.47;;;8.00;;
4885;SDS011;2457;51.788;6.136;2022-11-20T07:04:10;11.10;;;7.57;;
4885;SDS011;2457;51.788;6.136;2022-11-20T07:06:38;13.17;;;7.83;;
4885;SDS011;2457;51.788;6.136;2022-11-20T07:09:05;12.40;;;8.10;;
4885;SDS011;2457;51.788;6.136;2022-11-20T07:11:32;11.90;;;7.30;;
4885;SDS011;2457;51.788;6.136;2022-11-20T07:13:59;14.07;;;8.07;;
4885;SDS011;2457;51.788;6.136;2022-11-20T07:16:27;13.70;;;8.70;;
4885;SDS011;2457;51.788;6.136;2022-11-20T07:18:54;12.23;;;7.30;;
4885;SDS011;2457;51.788;6.136;2022-11-20T07:21:21;11.00;;;7.97;;
4885;SDS011;2457;51.788;6.136;2022-11-20T07:23:48;13.90;;;7.60;;
4885;SDS011;2457;51.788;6.136;2022-11-20T07:26:16;17.10;;;7.60;;
4885;SDS011;2457;51.788;6.136;2022-11-20T07:28:46;12.33;;;7.87;;
4885;SDS011;2457;51.788;6.136;2022-11-20T07:31:13;15.37;;;7.80;;
4885;SDS011;2457;51.788;6.136;2022-11-20T07:33:40;12.83;;;7.63;;
4885;SDS011;2457;51.788;6.136;2022-11-20T07:36:08;12.80;;;7.63;;
4885;SDS011;2457;51.788;6.136;2022-11-20T07:38:36;11.97;;;7.80;;
4885;SDS011;2457;51.788;6.136;2022-11-20T07:41:03;12.60;;;7.50;;
4885;SDS011;2457;51.788;6.136;2022-11-20T07:43:31;13.53;;;8.20;;
4885;SDS011;2457;51.788;6.136;2022-11-20T07:45:59;13.13;;;8.30;;
4885;SDS011;2457;51.788;6.136;2022-11-20T07:48:26;12.97;;;7.97;;
4885;SDS011;2457;51.788;6.136;2022-11-20T07:50:58;12.70;;;7.47;;
4885;SDS011;2457;51.788;6.136;2022-11-20T07:53:23;12.50;;;8.10;;
4885;SDS011;2457;51.788;6.136;2022-11-20T07:55:50;15.70;;;8.20;;
4885;SDS011;2457;51.788;6.136;2022-11-20T07:58:20;11.10;;;7.70;;
4885;SDS011;2457;51.788;6.136;2022-11-20T08:00:47;12.83;;;7.67;;
4885;SDS011;2457;51.788;6.136;2022-11-20T08:03:15;18.50;;;8.03;;
4885;SDS011;2457;51.788;6.136;2022-11-20T08:05:42;12.77;;;8.17;;
4885;SDS011;2457;51.788;6.136;2022-11-20T08:08:09;14.10;;;7.73;;
4885;SDS011;2457;51.788;6.136;2022-11-20T08:10:36;15.00;;;8.20;;
4885;SDS011;2457;51.788;6.136;2022-11-20T08:13:04;14.07;;;7.77;;
4885;SDS011;2457;51.788;6.136;2022-11-20T08:15:50;11.70;;;7.40;;
4885;SDS011;2457;51.788;6.136;2022-11-20T08:18:17;14.30;;;7.50;;
4885;SDS011;2457;51.788;6.136;2022-11-20T08:20:44;12.07;;;7.57;;
4885;SDS011;2457;51.788;6.136;2022-11-20T08:23:12;15.33;;;8.20;;
4885;SDS011;2457;51.788;6.136;2022-11-20T08:25:39;13.43;;;8.37;;
4885;SDS011;2457;51.788;6.136;2022-11-20T08:28:08;12.93;;;8.13;;
4885;SDS011;2457;51.788;6.136;2022-11-20T08:30:36;12.53;;;7.43;;
4885;SDS011;2457;51.788;6.136;2022-11-20T08:33:07;12.53;;;8.10;;
4885;SDS011;2457;51.788;6.136;2022-11-20T08:35:35;16.20;;;8.10;;
4885;SDS011;2457;51.788;6.136;2022-11-20T08:38:04;11.70;;;7.40;;
4885;SDS011;2457;51.788;6.136;2022-11-20T08:40:32;13.40;;;8.13;;
4885;SDS011;2457;51.788;6.136;2022-11-20T08:43:00;15.87;;;8.53;;
4885;SDS011;2457;51.788;6.136;2022-11-20T08:45:27;15.77;;;8.90;;
4885;SDS011;2457;51.788;6.136;2022-11-20T08:47:59;17.43;;;8.83;;
4885;SDS011;2457;51.788;6.136;2022-11-20T08:50:23;12.70;;;7.40;;
4885;SDS011;2457;51.788;6.136;2022-11-20T08:52:50;14.90;;;8.30;;
4885;SDS011;2457;51.788;6.136;2022-11-20T08:55:17;13.80;;;9.33;;
4885;SDS011;2457;51.788;6.136;2022-11-20T08:57:45;14.20;;;8.90;;
4885;SDS011;2457;51.788;6.136;2022-11-20T09:00:12;14.40;;;8.90;;
4885;SDS011;2457;51.788;6.136;2022-11-20T09:02:40;15.93;;;9.60;;
4885;SDS011;2457;51.788;6.136;2022-11-20T09:05:07;15.27;;;9.80;;
4885;SDS011;2457;51.788;6.136;2022-11-20T09:07:34;15.57;;;9.67;;
4885;SDS011;2457;51.788;6.136;2022-11-20T09:10:02;15.10;;;8.23;;
4885;SDS011;2457;51.788;6.136;2022-11-20T09:12:29;15.43;;;9.00;;
4885;SDS011;2457;51.788;6.136;2022-11-20T09:14:57;16.17;;;9.97;;
4885;SDS011;2457;51.788;6.136;2022-11-20T09:17:24;16.90;;;9.67;;
4885;SDS011;2457;51.788;6.136;2022-11-20T09:19:51;14.57;;;9.90;;
4885;SDS011;2457;51.788;6.136;2022-11-20T09:22:19;16.70;;;9.90;;
4885;SDS011;2457;51.788;6.136;2022-11-20T09:24:46;17.83;;;9.60;;
4885;SDS011;2457;51.788;6.136;2022-11-20T09:27:13;13.80;;;8.93;;
4885;SDS011;2457;51.788;6.136;2022-11-20T09:29:40;15.70;;;8.90;;
4885;SDS011;2457;51.788;6.136;2022-11-20T09:32:08;21.33;;;9.03;;
4885;SDS011;2457;51.788;6.136;2022-11-20T09:34:35;14.67;;;8.50;;
4885;SDS011;2457;51.788;6.136;2022-11-20T09:37:02;16.47;;;9.00;;
4885;SDS011;2457;51.788;6.136;2022-11-20T09:39:29;14.30;;;8.93;;
4885;SDS011;2457;51.788;6.136;2022-11-20T09:47:32;15.40;;;9.30;;
4885;SDS011;2457;51.788;6.136;2022-11-20T09:50:02;14.27;;;8.20;;
4885;SDS011;2457;51.788;6.136;2022-11-20T09:55:12;13.77;;;7.90;;
4885;SDS011;2457;51.788;6.136;2022-11-20T09:57:41;13.50;;;8.53;;
4885;SDS011;2457;51.788;6.136;2022-11-20T10:00:10;14.57;;;8.43;;
4885;SDS011;2457;51.788;6.136;2022-11-20T10:02:49;14.03;;;9.40;;
4885;SDS011;2457;51.788;6.136;2022-11-20T10:05:11;12.37;;;8.30;;
4885;SDS011;2457;51.788;6.136;2022-11-20T10:07:46;13.07;;;8.53;;
4885;SDS011;2457;51.788;6.136;2022-11-20T10:10:15;15.40;;;8.57;;
4885;SDS011;2457;51.788;6.136;2022-11-20T10:17:58;14.17;;;8.60;;
4885;SDS011;2457;51.788;6.136;2022-11-20T10:25:53;20.20;;;10.53;;
4885;SDS011;2457;51.788;6.136;2022-11-20T10:28:30;15.40;;;9.60;;
4885;SDS011;2457;51.788;6.136;2022-11-20T10:31:00;21.13;;;10.10;;
4885;SDS011;2457;51.788;6.136;2022-11-20T10:33:25;14.57;;;10.00;;
4885;SDS011;2457;51.788;6.136;2022-11-20T10:38:41;16.50;;;10.83;;
4885;SDS011;2457;51.788;6.136;2022-11-20T10:41:07;19.17;;;11.70;;
4885;SDS011;2457;51.788;6.136;2022-11-20T10:44:12;16.43;;;10.83;;
4885;SDS011;2457;51.788;6.136;2022-11-20T10:46:39;18.90;;;11.73;;
4885;SDS011;2457;51.788;6.136;2022-11-20T10:49:26;21.80;;;12.00;;
4885;SDS011;2457;51.788;6.136;2022-11-20T10:51:49;16.80;;;10.53;;
4885;SDS011;2457;51.788;6.136;2022-11-20T10:56:52;17.53;;;10.13;;
4885;SDS011;2457;51.788;6.136;2022-11-20T11:01:51;14.70;;;9.67;;
4885;SDS011;2457;51.788;6.136;2022-11-20T11:04:23;14.90;;;8.57;;
4885;SDS011;2457;51.788;6.136;2022-11-20T11:06:47;14.07;;;9.23;;
4885;SDS011;2457;51.788;6.136;2022-11-20T11:09:16;19.27;;;9.73;;
4885;SDS011;2457;51.788;6.136;2022-11-20T11:11:44;13.27;;;8.40;;
4885;SDS011;2457;51.788;6.136;2022-11-20T11:14:12;14.63;;;8.90;;
4885;SDS011;2457;51.788;6.136;2022-11-20T11:16:57;17.47;;;9.80;;
4885;SDS011;2457;51.788;6.136;2022-11-20T11:19:21;15.00;;;9.00;;
4885;SDS011;2457;51.788;6.136;2022-11-20T11:21:54;14.50;;;8.93;;
4885;SDS011;2457;51.788;6.136;2022-11-20T11:24:21;13.20;;;8.87;;
4885;SDS011;2457;51.788;6.136;2022-11-20T11:26:53;19.70;;;10.50;;
4885;SDS011;2457;51.788;6.136;2022-11-20T11:29:21;16.40;;;9.27;;
4885;SDS011;2457;51.788;6.136;2022-11-20T11:31:48;14.80;;;10.23;;
4885;SDS011;2457;51.788;6.136;2022-11-20T11:34:16;16.83;;;9.83;;
4885;SDS011;2457;51.788;6.136;2022-11-20T11:36:52;15.77;;;8.50;;
4885;SDS011;2457;51.788;6.136;2022-11-20T11:39:19;16.47;;;9.50;;
4885;SDS011;2457;51.788;6.136;2022-11-20T11:41:47;17.07;;;8.83;;
4885;SDS011;2457;51.788;6.136;2022-11-20T11:44:15;15.40;;;9.40;;
4885;SDS011;2457;51.788;6.136;2022-11-20T11:47:01;17.63;;;9.03;;
4885;SDS011;2457;51.788;6.136;2022-11-20T11:49:30;16.77;;;8.07;;
4885;SDS011;2457;51.788;6.136;2022-11-20T11:52:02;13.37;;;8.47;;
4885;SDS011;2457;51.788;6.136;2022-11-20T11:54:34;13.73;;;8.53;;
4885;SDS011;2457;51.788;6.136;2022-11-20T11:57:03;15.83;;;8.70;;
4885;SDS011;2457;51.788;6.136;2022-11-20T11:59:27;15.10;;;8.40;;
4885;SDS011;2457;51.788;6.136;2022-11-20T12:01:57;12.47;;;7.83;;
4885;SDS011;2457;51.788;6.136;2022-11-20T12:07:00;17.50;;;9.97;;
4885;SDS011;2457;51.788;6.136;2022-11-20T12:09:31;16.33;;;8.07;;
4885;SDS011;2457;51.788;6.136;2022-11-20T12:11:58;14.17;;;9.20;;
4885;SDS011;2457;51.788;6.136;2022-11-20T12:14:31;18.43;;;8.97;;
4885;SDS011;2457;51.788;6.136;2022-11-20T12:16:56;15.33;;;9.80;;
4885;SDS011;2457;51.788;6.136;2022-11-20T12:19:23;15.33;;;8.53;;
4885;SDS011;2457;51.788;6.136;2022-11-20T12:21:54;14.07;;;8.37;;
4885;SDS011;2457;51.788;6.136;2022-11-20T12:29:47;14.73;;;8.50;;
4885;SDS011;2457;51.788;6.136;2022-11-20T12:34:52;15.53;;;8.77;;
4885;SDS011;2457;51.788;6.136;2022-11-20T12:37:30;14.60;;;8.43;;
4885;SDS011;2457;51.788;6.136;2022-11-20T12:40:02;16.30;;;9.20;;
4885;SDS011;2457;51.788;6.136;2022-11-20T12:42:38;15.07;;;9.03;;
4885;SDS011;2457;51.788;6.136;2022-11-20T12:50:35;14.83;;;8.00;;
4885;SDS011;2457;51.788;6.136;2022-11-20T12:55:42;14.57;;;9.13;;
4885;SDS011;2457;51.788;6.136;2022-11-20T12:58:12;14.10;;;8.17;;
4885;SDS011;2457;51.788;6.136;2022-11-20T13:00:41;15.23;;;8.80;;
4885;SDS011;2457;51.788;6.136;2022-11-20T13:03:23;15.13;;;8.87;;
4885;SDS011;2457;51.788;6.136;2022-11-20T13:08:27;18.00;;;9.80;;
4885;SDS011;2457;51.788;6.136;2022-11-20T13:13:36;16.20;;;9.03;;
4885;SDS011;2457;51.788;6.136;2022-11-20T13:16:06;18.13;;;9.80;;
4885;SDS011;2457;51.788;6.136;2022-11-20T13:18:38;14.97;;;9.37;;
4885;SDS011;2457;51.788;6.136;2022-11-20T13:21:19;16.30;;;10.20;;
4885;SDS011;2457;51.788;6.136;2022-11-20T13:23:46;16.60;;;9.33;;
4885;SDS011;2457;51.788;6.136;2022-11-20T13:26:22;19.60;;;11.40;;
4885;SDS011;2457;51.788;6.136;2022-11-20T13:28:47;18.90;;;10.43;;
4885;SDS011;2457;51.788;6.136;2022-11-20T13:33:46;20.80;;;10.60;;
4885;SDS011;2457;51.788;6.136;2022-11-20T13:36:22;18.00;;;9.30;;
4885;SDS011;2457;51.788;6.136;2022-11-20T13:38:50;23.30;;;10.40;;
4885;SDS011;2457;51.788;6.136;2022-11-20T13:44:10;26.20;;;10.53;;
4885;SDS011;2457;51.788;6.136;2022-11-20T13:46:40;21.07;;;11.13;;
4885;SDS011;2457;51.788;6.136;2022-11-20T13:49:10;17.50;;;10.43;;
4885;SDS011;2457;51.788;6.136;2022-11-20T13:51:46;16.80;;;9.57;;
4885;SDS011;2457;51.788;6.136;2022-11-20T13:56:54;15.23;;;9.50;;
4885;SDS011;2457;51.788;6.136;2022-11-20T14:01:57;17.50;;;10.83;;
4885;SDS011;2457;51.788;6.136;2022-11-20T14:04:33;21.30;;;11.07;;
4885;SDS011;2457;51.788;6.136;2022-11-20T14:06:56;17.33;;;10.10;;
4885;SDS011;2457;51.788;6.136;2022-11-20T14:09:27;22.60;;;11.00;;
4885;SDS011;2457;51.788;6.136;2022-11-20T14:11:56;17.87;;;10.50;;
4885;SDS011;2457;51.788;6.136;2022-11-20T14:14:30;20.80;;;11.60;;
4885;SDS011;2457;51.788;6.136;2022-11-20T14:17:17;20.80;;;10.90;;
4885;SDS011;2457;51.788;6.136;2022-11-20T14:19:33;20.80;;;11.43;;
4885;SDS011;2457;51.788;6.136;2022-11-20T14:22:16;18.87;;;10.23;;
4885;SDS011;2457;51.788;6.136;2022-11-20T14:24:39;20.50;;;11.83;;
4885;SDS011;2457;51.788;6.136;2022-11-20T14:27:16;19.50;;;10.80;;
4885;SDS011;2457;51.788;6.136;2022-11-20T14:29:38;21.50;;;11.23;;
4885;SDS011;2457;51.788;6.136;2022-11-20T14:32:08;21.40;;;11.33;;
4885;SDS011;2457;51.788;6.136;2022-11-20T14:34:37;18.20;;;10.87;;
4885;SDS011;2457;51.788;6.136;2022-11-20T14:37:05;20.17;;;12.07;;
4885;SDS011;2457;51.788;6.136;2022-11-20T14:39:34;24.03;;;11.03;;
4885;SDS011;2457;51.788;6.136;2022-11-20T14:42:02;22.37;;;12.23;;
4885;SDS011;2457;51.788;6.136;2022-11-20T14:44:31;18.27;;;11.70;;
4885;SDS011;2457;51.788;6.136;2022-11-20T14:47:00;23.33;;;11.63;;
4885;SDS011;2457;51.788;6.136;2022-11-20T14:49:29;21.90;;;11.93;;
4885;SDS011;2457;51.788;6.136;2022-11-20T14:52:10;22.77;;;12.80;;
4885;SDS011;2457;51.788;6.136;2022-11-20T14:54:28;24.97;;;13.03;;
4885;SDS011;2457;51.788;6.136;2022-11-20T14:56:58;22.37;;;12.40;;
4885;SDS011;2457;51.788;6.136;2022-11-20T14:59:26;22.70;;;12.00;;
4885;SDS011;2457;51.788;6.136;2022-11-20T15:02:09;22.70;;;11.70;;
4885;SDS011;2457;51.788;6.136;2022-11-20T15:04:44;21.33;;;11.33;;
4885;SDS011;2457;51.788;6.136;2022-11-20T15:07:22;21.40;;;12.17;;
4885;SDS011;2457;51.788;6.136;2022-11-20T15:09:40;21.83;;;12.00;;
4885;SDS011;2457;51.788;6.136;2022-11-20T15:12:15;27.30;;;11.90;;
4885;SDS011;2457;51.788;6.136;2022-11-20T15:14:37;19.47;;;11.77;;
4885;SDS011;2457;51.788;6.136;2022-11-20T15:17:04;22.00;;;12.13;;
4885;SDS011;2457;51.788;6.136;2022-11-20T15:19:31;22.80;;;11.67;;
4885;SDS011;2457;51.788;6.136;2022-11-20T15:22:00;21.30;;;11.67;;
4885;SDS011;2457;51.788;6.136;2022-11-20T15:24:27;22.93;;;11.80;;
4885;SDS011;2457;51.788;6.136;2022-11-20T15:26:55;19.37;;;10.83;;
4885;SDS011;2457;51.788;6.136;2022-11-20T15:29:22;23.03;;;12.80;;
4885;SDS011;2457;51.788;6.136;2022-11-20T15:31:50;21.13;;;11.37;;
4885;SDS011;2457;51.788;6.136;2022-11-20T15:34:18;20.97;;;11.47;;
4885;SDS011;2457;51.788;6.136;2022-11-20T15:36:46;20.70;;;11.57;;
4885;SDS011;2457;51.788;6.136;2022-11-20T15:39:13;21.40;;;11.00;;
4885;SDS011;2457;51.788;6.136;2022-11-20T15:41:40;23.63;;;12.07;;
4885;SDS011;2457;51.788;6.136;2022-11-20T15:44:08;20.00;;;9.90;;
4885;SDS011;2457;51.788;6.136;2022-11-20T15:46:36;22.23;;;11.50;;
4885;SDS011;2457;51.788;6.136;2022-11-20T15:49:06;18.00;;;10.00;;
4885;SDS011;2457;51.788;6.136;2022-11-20T15:51:38;21.73;;;11.90;;
4885;SDS011;2457;51.788;6.136;2022-11-20T15:54:10;19.90;;;11.40;;
4885;SDS011;2457;51.788;6.136;2022-11-20T15:56:38;21.13;;;12.17;;
4885;SDS011;2457;51.788;6.136;2022-11-20T15:59:05;21.37;;;11.80;;
4885;SDS011;2457;51.788;6.136;2022-11-20T16:01:32;20.60;;;11.50;;
4885;SDS011;2457;51.788;6.136;2022-11-20T16:04:00;22.40;;;11.90;;
4885;SDS011;2457;51.788;6.136;2022-11-20T16:06:27;18.70;;;11.70;;
4885;SDS011;2457;51.788;6.136;2022-11-20T16:08:54;20.97;;;11.90;;
4885;SDS011;2457;51.788;6.136;2022-11-20T16:11:22;23.33;;;11.33;;
4885;SDS011;2457;51.788;6.136;2022-11-20T16:13:49;20.87;;;11.60;;
4885;SDS011;2457;51.788;6.136;2022-11-20T16:16:36;23.13;;;10.90;;